sensor_id;sensor_type;location;lat;lon;timestamp;temperature;humidity
69533;DHT22;56729;52.036;5.332;2022-07-17T00:00:05;13.40;83.50
69533;DHT22;56729;52.036;5.332;2022-07-17T00:01:08;13.40;83.50
69533;DHT22;56729;52.036;5.332;2022-07-17T00:02:10;13.40;83.50
69533;DHT22;56729;52.036;5.332;2022-07-17T00:03:15;13.40;83.60
69533;DHT22;56729;52.036;5.332;2022-07-17T00:04:17;13.40;83.50
69533;DHT22;56729;52.036;5.332;2022-07-17T00:05:20;13.40;83.40
69533;DHT22;56729;52.036;5.332;2022-07-17T00:06:22;13.40;83.30
69533;DHT22;56729;52.036;5.332;2022-07-17T00:07:24;13.50;83.30
69533;DHT22;56729;52.036;5.332;2022-07-17T00:08:26;13.40;83.20
69533;DHT22;56729;52.036;5.332;2022-07-17T00:09:28;13.40;83.20
69533;DHT22;56729;52.036;5.332;2022-07-17T00:10:30;13.40;83.00
69533;DHT22;56729;52.036;5.332;2022-07-17T00:11:33;13.40;83.00
69533;DHT22;56729;52.036;5.332;2022-07-17T00:12:35;13.40;83.00
69533;DHT22;56729;52.036;5.332;2022-07-17T00:13:38;13.40;83.10
69533;DHT22;56729;52.036;5.332;2022-07-17T00:14:40;13.40;83.20
69533;DHT22;56729;52.036;5.332;2022-07-17T00:15:42;13.30;83.30
69533;DHT22;56729;52.036;5.332;2022-07-17T00:16:44;13.30;83.40
69533;DHT22;56729;52.036;5.332;2022-07-17T00:17:46;13.30;83.60
69533;DHT22;56729;52.036;5.332;2022-07-17T00:18:48;13.30;83.70
69533;DHT22;56729;52.036;5.332;2022-07-17T00:19:50;13.30;83.90
69533;DHT22;56729;52.036;5.332;2022-07-17T00:20:52;13.30;83.90
69533;DHT22;56729;52.036;5.332;2022-07-17T00:21:54;13.20;84.00
69533;DHT22;56729;52.036;5.332;2022-07-17T00:22:56;13.20;84.00
69533;DHT22;56729;52.036;5.332;2022-07-17T00:23:59;13.20;84.10
69533;DHT22;56729;52.036;5.332;2022-07-17T00:25:01;13.20;84.10
69533;DHT22;56729;52.036;5.332;2022-07-17T00:26:04;13.20;84.20
69533;DHT22;56729;52.036;5.332;2022-07-17T00:27:06;13.10;84.30
69533;DHT22;56729;52.036;5.332;2022-07-17T00:28:08;13.20;84.40
69533;DHT22;56729;52.036;5.332;2022-07-17T00:29:10;13.10;85.40
69533;DHT22;56729;52.036;5.332;2022-07-17T00:30:12;13.10;85.30
69533;DHT22;56729;52.036;5.332;2022-07-17T00:31:14;13.10;84.30
69533;DHT22;56729;52.036;5.332;2022-07-17T00:32:16;13.10;84.40
69533;DHT22;56729;52.036;5.332;2022-07-17T00:33:19;13.10;84.30
69533;DHT22;56729;52.036;5.332;2022-07-17T00:34:21;13.10;84.50
69533;DHT22;56729;52.036;5.332;2022-07-17T00:35:23;13.10;84.50
69533;DHT22;56729;52.036;5.332;2022-07-17T00:36:27;13.10;84.40
69533;DHT22;56729;52.036;5.332;2022-07-17T00:37:29;13.10;84.40
69533;DHT22;56729;52.036;5.332;2022-07-17T00:38:31;13.10;84.30
69533;DHT22;56729;52.036;5.332;2022-07-17T00:39:32;13.10;84.20
69533;DHT22;56729;52.036;5.332;2022-07-17T00:40:34;13.10;84.30
69533;DHT22;56729;52.036;5.332;2022-07-17T00:41:37;13.10;84.40
69533;DHT22;56729;52.036;5.332;2022-07-17T00:42:41;13.10;84.50
69533;DHT22;56729;52.036;5.332;2022-07-17T00:43:43;13.00;84.50
69533;DHT22;56729;52.036;5.332;2022-07-17T00:44:47;13.00;84.40
69533;DHT22;56729;52.036;5.332;2022-07-17T00:45:59;13.00;84.50
69533;DHT22;56729;52.036;5.332;2022-07-17T00:47:02;13.00;84.60
69533;DHT22;56729;52.036;5.332;2022-07-17T00:48:05;12.90;84.60
69533;DHT22;56729;52.036;5.332;2022-07-17T00:49:09;12.90;84.80
69533;DHT22;56729;52.036;5.332;2022-07-17T00:50:11;12.90;84.90
69533;DHT22;56729;52.036;5.332;2022-07-17T00:51:13;12.90;85.00
69533;DHT22;56729;52.036;5.332;2022-07-17T00:52:16;12.80;85.00
69533;DHT22;56729;52.036;5.332;2022-07-17T00:53:19;12.80;85.20
69533;DHT22;56729;52.036;5.332;2022-07-17T00:54:22;12.70;85.30
69533;DHT22;56729;52.036;5.332;2022-07-17T00:55:25;12.70;85.50
69533;DHT22;56729;52.036;5.332;2022-07-17T00:56:46;12.70;85.60
69533;DHT22;56729;52.036;5.332;2022-07-17T00:57:50;12.70;85.50
69533;DHT22;56729;52.036;5.332;2022-07-17T00:58:53;12.70;85.60
69533;DHT22;56729;52.036;5.332;2022-07-17T00:59:56;12.60;85.80
69533;DHT22;56729;52.036;5.332;2022-07-17T01:00:57;12.60;86.10
69533;DHT22;56729;52.036;5.332;2022-07-17T01:02:04;12.60;86.10
69533;DHT22;56729;52.036;5.332;2022-07-17T01:03:08;12.60;86.20
69533;DHT22;56729;52.036;5.332;2022-07-17T01:04:11;12.60;87.50
69533;DHT22;56729;52.036;5.332;2022-07-17T01:05:15;12.50;86.50
69533;DHT22;56729;52.036;5.332;2022-07-17T01:06:21;12.50;86.50
69533;DHT22;56729;52.036;5.332;2022-07-17T01:07:23;12.50;86.50
69533;DHT22;56729;52.036;5.332;2022-07-17T01:08:26;12.50;86.40
69533;DHT22;56729;52.036;5.332;2022-07-17T01:09:28;12.50;86.50
69533;DHT22;56729;52.036;5.332;2022-07-17T01:10:30;12.50;86.50
69533;DHT22;56729;52.036;5.332;2022-07-17T01:11:32;12.50;86.50
69533;DHT22;56729;52.036;5.332;2022-07-17T01:12:34;12.50;86.50
69533;DHT22;56729;52.036;5.332;2022-07-17T01:13:36;12.50;86.40
69533;DHT22;56729;52.036;5.332;2022-07-17T01:14:38;12.50;86.50
69533;DHT22;56729;52.036;5.332;2022-07-17T01:15:41;12.50;86.50
69533;DHT22;56729;52.036;5.332;2022-07-17T01:16:44;12.50;86.50
69533;DHT22;56729;52.036;5.332;2022-07-17T01:17:46;12.50;86.50
69533;DHT22;56729;52.036;5.332;2022-07-17T01:18:49;12.50;86.50
69533;DHT22;56729;52.036;5.332;2022-07-17T01:19:52;12.50;86.50
69533;DHT22;56729;52.036;5.332;2022-07-17T01:20:54;12.50;86.50
69533;DHT22;56729;52.036;5.332;2022-07-17T01:21:56;12.50;86.50
69533;DHT22;56729;52.036;5.332;2022-07-17T01:22:58;12.50;86.50
69533;DHT22;56729;52.036;5.332;2022-07-17T01:23:59;12.50;86.30
69533;DHT22;56729;52.036;5.332;2022-07-17T01:25:01;12.50;86.30
69533;DHT22;56729;52.036;5.332;2022-07-17T01:26:03;12.50;86.20
69533;DHT22;56729;52.036;5.332;2022-07-17T01:27:05;12.50;86.20
69533;DHT22;56729;52.036;5.332;2022-07-17T01:28:08;12.50;86.10
69533;DHT22;56729;52.036;5.332;2022-07-17T01:29:11;12.50;86.20
69533;DHT22;56729;52.036;5.332;2022-07-17T01:30:13;12.40;86.20
69533;DHT22;56729;52.036;5.332;2022-07-17T01:31:15;12.40;86.30
69533;DHT22;56729;52.036;5.332;2022-07-17T01:32:17;12.40;86.40
69533;DHT22;56729;52.036;5.332;2022-07-17T01:33:21;12.40;86.30
69533;DHT22;56729;52.036;5.332;2022-07-17T01:34:25;12.40;86.40
69533;DHT22;56729;52.036;5.332;2022-07-17T01:35:27;12.40;86.40
69533;DHT22;56729;52.036;5.332;2022-07-17T01:36:29;12.30;86.10
69533;DHT22;56729;52.036;5.332;2022-07-17T01:37:31;12.30;86.20
69533;DHT22;56729;52.036;5.332;2022-07-17T01:38:33;12.30;86.30
69533;DHT22;56729;52.036;5.332;2022-07-17T01:39:35;12.20;86.30
69533;DHT22;56729;52.036;5.332;2022-07-17T01:40:55;12.20;86.60
69533;DHT22;56729;52.036;5.332;2022-07-17T01:41:57;12.10;86.60
69533;DHT22;56729;52.036;5.332;2022-07-17T01:42:59;12.10;86.80
69533;DHT22;56729;52.036;5.332;2022-07-17T01:44:01;12.00;87.00
69533;DHT22;56729;52.036;5.332;2022-07-17T01:45:05;12.00;87.20
69533;DHT22;56729;52.036;5.332;2022-07-17T01:46:07;12.00;87.50
69533;DHT22;56729;52.036;5.332;2022-07-17T01:47:09;12.00;87.50
69533;DHT22;56729;52.036;5.332;2022-07-17T01:48:23;12.00;87.50
69533;DHT22;56729;52.036;5.332;2022-07-17T01:49:25;12.00;87.60
69533;DHT22;56729;52.036;5.332;2022-07-17T01:50:27;11.90;87.60
69533;DHT22;56729;52.036;5.332;2022-07-17T01:51:32;11.90;87.80
69533;DHT22;56729;52.036;5.332;2022-07-17T01:52:37;11.90;87.90
69533;DHT22;56729;52.036;5.332;2022-07-17T01:53:39;11.90;87.90
69533;DHT22;56729;52.036;5.332;2022-07-17T01:54:41;11.80;87.90
69533;DHT22;56729;52.036;5.332;2022-07-17T01:55:43;11.90;88.00
69533;DHT22;56729;52.036;5.332;2022-07-17T01:56:45;11.80;87.80
69533;DHT22;56729;52.036;5.332;2022-07-17T01:57:47;11.80;87.80
69533;DHT22;56729;52.036;5.332;2022-07-17T01:58:49;11.80;87.80
69533;DHT22;56729;52.036;5.332;2022-07-17T01:59:51;11.80;87.90
69533;DHT22;56729;52.036;5.332;2022-07-17T02:00:56;11.80;88.10
69533;DHT22;56729;52.036;5.332;2022-07-17T02:01:58;11.80;88.10
69533;DHT22;56729;52.036;5.332;2022-07-17T02:03:00;11.80;88.20
69533;DHT22;56729;52.036;5.332;2022-07-17T02:04:02;11.80;88.20
69533;DHT22;56729;52.036;5.332;2022-07-17T02:05:05;11.80;88.20
69533;DHT22;56729;52.036;5.332;2022-07-17T02:06:09;11.80;88.20
69533;DHT22;56729;52.036;5.332;2022-07-17T02:07:11;11.90;88.40
69533;DHT22;56729;52.036;5.332;2022-07-17T02:08:13;11.90;88.30
69533;DHT22;56729;52.036;5.332;2022-07-17T02:09:15;11.90;88.40
69533;DHT22;56729;52.036;5.332;2022-07-17T02:10:17;11.90;88.40
69533;DHT22;56729;52.036;5.332;2022-07-17T02:11:19;11.90;88.40
69533;DHT22;56729;52.036;5.332;2022-07-17T02:12:21;11.90;88.40
69533;DHT22;56729;52.036;5.332;2022-07-17T02:13:22;11.90;88.50
69533;DHT22;56729;52.036;5.332;2022-07-17T02:14:25;12.00;88.40
69533;DHT22;56729;52.036;5.332;2022-07-17T02:15:27;12.00;88.40
69533;DHT22;56729;52.036;5.332;2022-07-17T02:16:29;12.00;88.40
69533;DHT22;56729;52.036;5.332;2022-07-17T02:17:31;12.00;88.30
69533;DHT22;56729;52.036;5.332;2022-07-17T02:18:33;11.90;88.30
69533;DHT22;56729;52.036;5.332;2022-07-17T02:19:35;11.90;88.30
69533;DHT22;56729;52.036;5.332;2022-07-17T02:20:36;11.90;88.40
69533;DHT22;56729;52.036;5.332;2022-07-17T02:21:38;11.90;88.70
69533;DHT22;56729;52.036;5.332;2022-07-17T02:22:41;11.80;88.80
69533;DHT22;56729;52.036;5.332;2022-07-17T02:23:48;11.80;88.90
69533;DHT22;56729;52.036;5.332;2022-07-17T02:24:50;11.80;89.00
69533;DHT22;56729;52.036;5.332;2022-07-17T02:25:51;11.80;89.00
69533;DHT22;56729;52.036;5.332;2022-07-17T02:26:56;11.80;89.20
69533;DHT22;56729;52.036;5.332;2022-07-17T02:28:02;11.80;89.20
69533;DHT22;56729;52.036;5.332;2022-07-17T02:29:04;11.80;89.20
69533;DHT22;56729;52.036;5.332;2022-07-17T02:30:15;11.80;89.20
69533;DHT22;56729;52.036;5.332;2022-07-17T02:31:17;11.80;89.00
69533;DHT22;56729;52.036;5.332;2022-07-17T02:32:19;11.80;89.00
69533;DHT22;56729;52.036;5.332;2022-07-17T02:33:21;11.90;88.90
69533;DHT22;56729;52.036;5.332;2022-07-17T02:34:23;11.90;88.90
69533;DHT22;56729;52.036;5.332;2022-07-17T02:35:25;11.90;89.00
69533;DHT22;56729;52.036;5.332;2022-07-17T02:36:27;11.90;89.10
69533;DHT22;56729;52.036;5.332;2022-07-17T02:37:29;11.90;89.10
69533;DHT22;56729;52.036;5.332;2022-07-17T02:38:31;11.90;89.20
69533;DHT22;56729;52.036;5.332;2022-07-17T02:39:32;11.90;89.20
69533;DHT22;56729;52.036;5.332;2022-07-17T02:40:34;12.00;89.10
69533;DHT22;56729;52.036;5.332;2022-07-17T02:41:37;12.00;89.10
69533;DHT22;56729;52.036;5.332;2022-07-17T02:42:39;12.00;89.10
69533;DHT22;56729;52.036;5.332;2022-07-17T02:43:42;12.00;90.00
69533;DHT22;56729;52.036;5.332;2022-07-17T02:44:44;11.90;89.00
69533;DHT22;56729;52.036;5.332;2022-07-17T02:45:46;11.90;88.90
69533;DHT22;56729;52.036;5.332;2022-07-17T02:46:48;11.80;89.00
69533;DHT22;56729;52.036;5.332;2022-07-17T02:47:51;11.80;89.20
69533;DHT22;56729;52.036;5.332;2022-07-17T02:48:53;11.80;89.50
69533;DHT22;56729;52.036;5.332;2022-07-17T02:49:55;11.80;89.60
69533;DHT22;56729;52.036;5.332;2022-07-17T02:50:57;11.80;89.60
69533;DHT22;56729;52.036;5.332;2022-07-17T02:51:59;11.80;89.60
69533;DHT22;56729;52.036;5.332;2022-07-17T02:53:01;11.80;89.60
69533;DHT22;56729;52.036;5.332;2022-07-17T02:54:03;11.80;89.70
69533;DHT22;56729;52.036;5.332;2022-07-17T02:55:06;11.70;89.70
69533;DHT22;56729;52.036;5.332;2022-07-17T02:56:08;11.80;89.70
69533;DHT22;56729;52.036;5.332;2022-07-17T02:57:10;11.70;89.60
69533;DHT22;56729;52.036;5.332;2022-07-17T02:58:12;11.80;89.70
69533;DHT22;56729;52.036;5.332;2022-07-17T02:59:14;11.70;89.60
69533;DHT22;56729;52.036;5.332;2022-07-17T03:00:17;11.70;89.50
69533;DHT22;56729;52.036;5.332;2022-07-17T03:01:19;11.70;89.60
69533;DHT22;56729;52.036;5.332;2022-07-17T03:02:21;11.60;89.60
69533;DHT22;56729;52.036;5.332;2022-07-17T03:03:23;11.60;89.80
69533;DHT22;56729;52.036;5.332;2022-07-17T03:04:25;11.60;90.00
69533;DHT22;56729;52.036;5.332;2022-07-17T03:05:27;11.60;90.10
69533;DHT22;56729;52.036;5.332;2022-07-17T03:06:29;11.50;90.10
69533;DHT22;56729;52.036;5.332;2022-07-17T03:07:31;11.50;90.10
69533;DHT22;56729;52.036;5.332;2022-07-17T03:08:33;11.50;90.10
69533;DHT22;56729;52.036;5.332;2022-07-17T03:09:36;11.50;90.20
69533;DHT22;56729;52.036;5.332;2022-07-17T03:10:38;11.50;90.20
69533;DHT22;56729;52.036;5.332;2022-07-17T03:11:40;11.50;90.20
69533;DHT22;56729;52.036;5.332;2022-07-17T03:12:42;11.50;90.30
69533;DHT22;56729;52.036;5.332;2022-07-17T03:13:44;11.50;90.30
69533;DHT22;56729;52.036;5.332;2022-07-17T03:14:46;11.50;90.30
69533;DHT22;56729;52.036;5.332;2022-07-17T03:15:48;11.50;90.30
69533;DHT22;56729;52.036;5.332;2022-07-17T03:16:50;11.50;90.30
69533;DHT22;56729;52.036;5.332;2022-07-17T03:17:52;11.50;90.20
69533;DHT22;56729;52.036;5.332;2022-07-17T03:18:54;11.50;90.20
69533;DHT22;56729;52.036;5.332;2022-07-17T03:19:56;11.60;90.20
69533;DHT22;56729;52.036;5.332;2022-07-17T03:20:58;11.60;90.20
69533;DHT22;56729;52.036;5.332;2022-07-17T03:22:00;11.60;90.30
69533;DHT22;56729;52.036;5.332;2022-07-17T03:23:01;11.60;90.30
69533;DHT22;56729;52.036;5.332;2022-07-17T03:24:04;11.60;90.20
69533;DHT22;56729;52.036;5.332;2022-07-17T03:25:06;11.60;90.20
69533;DHT22;56729;52.036;5.332;2022-07-17T03:26:08;11.70;90.20
69533;DHT22;56729;52.036;5.332;2022-07-17T03:27:10;11.70;90.20
69533;DHT22;56729;52.036;5.332;2022-07-17T03:28:12;11.70;90.20
69533;DHT22;56729;52.036;5.332;2022-07-17T03:29:14;11.70;90.20
69533;DHT22;56729;52.036;5.332;2022-07-17T03:30:19;11.70;90.10
69533;DHT22;56729;52.036;5.332;2022-07-17T03:31:20;11.70;90.10
69533;DHT22;56729;52.036;5.332;2022-07-17T03:32:23;11.70;90.00
69533;DHT22;56729;52.036;5.332;2022-07-17T03:33:25;11.70;90.10
69533;DHT22;56729;52.036;5.332;2022-07-17T03:34:27;11.70;90.10
69533;DHT22;56729;52.036;5.332;2022-07-17T03:35:28;11.70;90.00
69533;DHT22;56729;52.036;5.332;2022-07-17T03:36:30;11.70;90.00
69533;DHT22;56729;52.036;5.332;2022-07-17T03:37:32;11.70;89.90
69533;DHT22;56729;52.036;5.332;2022-07-17T03:38:34;11.70;89.90
69533;DHT22;56729;52.036;5.332;2022-07-17T03:39:36;11.70;90.00
69533;DHT22;56729;52.036;5.332;2022-07-17T03:40:38;11.80;90.00
69533;DHT22;56729;52.036;5.332;2022-07-17T03:41:40;11.80;90.00
69533;DHT22;56729;52.036;5.332;2022-07-17T03:42:42;11.80;89.90
69533;DHT22;56729;52.036;5.332;2022-07-17T03:43:44;11.80;89.90
69533;DHT22;56729;52.036;5.332;2022-07-17T03:44:47;11.80;90.00
69533;DHT22;56729;52.036;5.332;2022-07-17T03:45:49;11.70;90.00
69533;DHT22;56729;52.036;5.332;2022-07-17T03:46:51;11.70;90.00
69533;DHT22;56729;52.036;5.332;2022-07-17T03:47:53;11.70;90.10
69533;DHT22;56729;52.036;5.332;2022-07-17T03:48:55;11.70;90.20
69533;DHT22;56729;52.036;5.332;2022-07-17T03:49:58;11.70;90.20
69533;DHT22;56729;52.036;5.332;2022-07-17T03:50:59;11.70;90.20
69533;DHT22;56729;52.036;5.332;2022-07-17T03:52:01;11.70;90.30
69533;DHT22;56729;52.036;5.332;2022-07-17T03:53:04;11.70;90.80
69533;DHT22;56729;52.036;5.332;2022-07-17T03:54:06;11.60;90.30
69533;DHT22;56729;52.036;5.332;2022-07-17T03:55:08;11.60;90.30
69533;DHT22;56729;52.036;5.332;2022-07-17T03:56:10;11.60;90.30
69533;DHT22;56729;52.036;5.332;2022-07-17T03:57:12;11.60;90.30
69533;DHT22;56729;52.036;5.332;2022-07-17T03:58:14;11.50;90.40
69533;DHT22;56729;52.036;5.332;2022-07-17T03:59:16;11.50;90.50
69533;DHT22;56729;52.036;5.332;2022-07-17T04:00:18;11.50;90.60
69533;DHT22;56729;52.036;5.332;2022-07-17T04:01:20;11.50;90.60
69533;DHT22;56729;52.036;5.332;2022-07-17T04:02:22;11.50;90.60
69533;DHT22;56729;52.036;5.332;2022-07-17T04:03:26;11.50;90.70
69533;DHT22;56729;52.036;5.332;2022-07-17T04:04:28;11.50;90.70
69533;DHT22;56729;52.036;5.332;2022-07-17T04:05:29;11.60;90.70
69533;DHT22;56729;52.036;5.332;2022-07-17T04:06:31;11.60;90.70
69533;DHT22;56729;52.036;5.332;2022-07-17T04:07:33;11.60;90.60
69533;DHT22;56729;52.036;5.332;2022-07-17T04:08:36;11.60;90.60
69533;DHT22;56729;52.036;5.332;2022-07-17T04:09:38;11.60;90.60
69533;DHT22;56729;52.036;5.332;2022-07-17T04:10:39;11.60;90.70
69533;DHT22;56729;52.036;5.332;2022-07-17T04:11:42;11.70;90.70
69533;DHT22;56729;52.036;5.332;2022-07-17T04:12:43;11.70;90.70
69533;DHT22;56729;52.036;5.332;2022-07-17T04:13:46;11.70;90.70
69533;DHT22;56729;52.036;5.332;2022-07-17T04:14:48;11.70;90.60
69533;DHT22;56729;52.036;5.332;2022-07-17T04:15:50;11.70;90.70
69533;DHT22;56729;52.036;5.332;2022-07-17T04:16:57;11.70;90.60
69533;DHT22;56729;52.036;5.332;2022-07-17T04:17:59;11.60;90.60
69533;DHT22;56729;52.036;5.332;2022-07-17T04:19:01;11.60;90.60
69533;DHT22;56729;52.036;5.332;2022-07-17T04:20:03;11.60;90.70
69533;DHT22;56729;52.036;5.332;2022-07-17T04:21:08;11.70;90.80
69533;DHT22;56729;52.036;5.332;2022-07-17T04:22:12;11.70;90.80
69533;DHT22;56729;52.036;5.332;2022-07-17T04:23:15;11.70;90.70
69533;DHT22;56729;52.036;5.332;2022-07-17T04:24:17;11.70;90.70
69533;DHT22;56729;52.036;5.332;2022-07-17T04:25:19;11.70;90.70
69533;DHT22;56729;52.036;5.332;2022-07-17T04:26:21;11.70;90.70
69533;DHT22;56729;52.036;5.332;2022-07-17T04:27:23;11.70;90.60
69533;DHT22;56729;52.036;5.332;2022-07-17T04:28:25;11.70;90.60
69533;DHT22;56729;52.036;5.332;2022-07-17T04:29:27;11.80;90.60
69533;DHT22;56729;52.036;5.332;2022-07-17T04:30:29;11.80;90.60
69533;DHT22;56729;52.036;5.332;2022-07-17T04:31:31;11.80;90.60
69533;DHT22;56729;52.036;5.332;2022-07-17T04:32:33;11.80;90.60
69533;DHT22;56729;52.036;5.332;2022-07-17T04:33:35;11.80;90.60
69533;DHT22;56729;52.036;5.332;2022-07-17T04:34:37;11.80;90.70
69533;DHT22;56729;52.036;5.332;2022-07-17T04:35:39;11.80;90.70
69533;DHT22;56729;52.036;5.332;2022-07-17T04:36:41;11.80;90.70
69533;DHT22;56729;52.036;5.332;2022-07-17T04:37:43;11.80;90.70
69533;DHT22;56729;52.036;5.332;2022-07-17T04:38:45;11.70;90.70
69533;DHT22;56729;52.036;5.332;2022-07-17T04:39:47;11.80;90.70
69533;DHT22;56729;52.036;5.332;2022-07-17T04:40:49;11.70;90.70
69533;DHT22;56729;52.036;5.332;2022-07-17T04:41:51;11.70;90.70
69533;DHT22;56729;52.036;5.332;2022-07-17T04:42:53;11.70;90.70
69533;DHT22;56729;52.036;5.332;2022-07-17T04:43:55;11.80;90.70
69533;DHT22;56729;52.036;5.332;2022-07-17T04:44:57;11.80;90.70
69533;DHT22;56729;52.036;5.332;2022-07-17T04:45:59;11.80;90.80
69533;DHT22;56729;52.036;5.332;2022-07-17T04:47:01;11.70;90.70
69533;DHT22;56729;52.036;5.332;2022-07-17T04:48:04;11.80;90.80
69533;DHT22;56729;52.036;5.332;2022-07-17T04:49:06;11.80;90.80
69533;DHT22;56729;52.036;5.332;2022-07-17T04:50:09;11.80;90.80
69533;DHT22;56729;52.036;5.332;2022-07-17T04:51:11;11.80;90.80
69533;DHT22;56729;52.036;5.332;2022-07-17T04:52:12;11.80;90.90
69533;DHT22;56729;52.036;5.332;2022-07-17T04:53:14;11.80;90.90
69533;DHT22;56729;52.036;5.332;2022-07-17T04:54:24;11.80;90.90
69533;DHT22;56729;52.036;5.332;2022-07-17T04:55:26;11.90;90.90
69533;DHT22;56729;52.036;5.332;2022-07-17T04:56:28;11.90;90.80
69533;DHT22;56729;52.036;5.332;2022-07-17T04:57:30;11.90;90.80
69533;DHT22;56729;52.036;5.332;2022-07-17T04:58:32;11.90;90.80
69533;DHT22;56729;52.036;5.332;2022-07-17T04:59:34;11.90;90.80
69533;DHT22;56729;52.036;5.332;2022-07-17T05:00:40;11.90;90.80
69533;DHT22;56729;52.036;5.332;2022-07-17T05:01:42;11.90;90.90
69533;DHT22;56729;52.036;5.332;2022-07-17T05:02:44;11.90;90.90
69533;DHT22;56729;52.036;5.332;2022-07-17T05:03:46;11.90;91.00
69533;DHT22;56729;52.036;5.332;2022-07-17T05:04:47;11.90;91.00
69533;DHT22;56729;52.036;5.332;2022-07-17T05:05:49;11.90;91.00
69533;DHT22;56729;52.036;5.332;2022-07-17T05:06:51;12.00;91.10
69533;DHT22;56729;52.036;5.332;2022-07-17T05:07:56;12.00;91.10
69533;DHT22;56729;52.036;5.332;2022-07-17T05:08:58;12.00;91.10
69533;DHT22;56729;52.036;5.332;2022-07-17T05:10:00;12.00;91.10
69533;DHT22;56729;52.036;5.332;2022-07-17T05:11:02;12.00;91.10
69533;DHT22;56729;52.036;5.332;2022-07-17T05:12:04;12.00;91.10
69533;DHT22;56729;52.036;5.332;2022-07-17T05:13:06;12.00;91.20
69533;DHT22;56729;52.036;5.332;2022-07-17T05:14:08;12.00;91.20
69533;DHT22;56729;52.036;5.332;2022-07-17T05:15:10;12.10;91.30
69533;DHT22;56729;52.036;5.332;2022-07-17T05:16:12;12.10;91.30
69533;DHT22;56729;52.036;5.332;2022-07-17T05:17:14;12.10;91.30
69533;DHT22;56729;52.036;5.332;2022-07-17T05:18:16;12.10;91.30
69533;DHT22;56729;52.036;5.332;2022-07-17T05:19:18;12.20;91.40
69533;DHT22;56729;52.036;5.332;2022-07-17T05:20:19;12.20;91.30
69533;DHT22;56729;52.036;5.332;2022-07-17T05:21:21;12.20;91.40
69533;DHT22;56729;52.036;5.332;2022-07-17T05:22:23;12.20;91.40
69533;DHT22;56729;52.036;5.332;2022-07-17T05:23:25;12.30;91.40
69533;DHT22;56729;52.036;5.332;2022-07-17T05:24:27;12.30;91.40
69533;DHT22;56729;52.036;5.332;2022-07-17T05:25:29;12.30;91.40
69533;DHT22;56729;52.036;5.332;2022-07-17T05:26:31;12.30;91.40
69533;DHT22;56729;52.036;5.332;2022-07-17T05:27:33;12.30;91.30
69533;DHT22;56729;52.036;5.332;2022-07-17T05:28:35;12.40;91.40
69533;DHT22;56729;52.036;5.332;2022-07-17T05:29:39;12.40;91.80
69533;DHT22;56729;52.036;5.332;2022-07-17T05:30:41;12.40;91.40
69533;DHT22;56729;52.036;5.332;2022-07-17T05:31:43;12.50;91.40
69533;DHT22;56729;52.036;5.332;2022-07-17T05:32:45;12.50;91.40
69533;DHT22;56729;52.036;5.332;2022-07-17T05:33:46;12.50;91.30
69533;DHT22;56729;52.036;5.332;2022-07-17T05:34:48;12.50;91.20
69533;DHT22;56729;52.036;5.332;2022-07-17T05:35:50;12.50;91.30
69533;DHT22;56729;52.036;5.332;2022-07-17T05:36:53;12.50;91.30
69533;DHT22;56729;52.036;5.332;2022-07-17T05:37:55;12.60;91.40
69533;DHT22;56729;52.036;5.332;2022-07-17T05:38:57;12.60;91.40
69533;DHT22;56729;52.036;5.332;2022-07-17T05:39:59;12.60;91.50
69533;DHT22;56729;52.036;5.332;2022-07-17T05:41:02;12.70;91.60
69533;DHT22;56729;52.036;5.332;2022-07-17T05:42:03;12.70;91.60
69533;DHT22;56729;52.036;5.332;2022-07-17T05:43:05;12.70;91.60
69533;DHT22;56729;52.036;5.332;2022-07-17T05:44:07;12.80;91.70
69533;DHT22;56729;52.036;5.332;2022-07-17T05:45:09;12.80;91.70
69533;DHT22;56729;52.036;5.332;2022-07-17T05:46:11;12.90;91.80
69533;DHT22;56729;52.036;5.332;2022-07-17T05:47:13;12.90;91.80
69533;DHT22;56729;52.036;5.332;2022-07-17T05:48:15;12.90;91.80
69533;DHT22;56729;52.036;5.332;2022-07-17T05:49:17;13.00;91.90
69533;DHT22;56729;52.036;5.332;2022-07-17T05:50:19;13.10;91.90
69533;DHT22;56729;52.036;5.332;2022-07-17T05:51:21;13.10;91.90
69533;DHT22;56729;52.036;5.332;2022-07-17T05:52:26;13.20;91.80
69533;DHT22;56729;52.036;5.332;2022-07-17T05:53:27;13.20;91.80
69533;DHT22;56729;52.036;5.332;2022-07-17T05:54:30;13.30;91.70
69533;DHT22;56729;52.036;5.332;2022-07-17T05:55:32;13.30;91.70
69533;DHT22;56729;52.036;5.332;2022-07-17T05:56:34;13.40;91.60
69533;DHT22;56729;52.036;5.332;2022-07-17T05:57:36;13.40;91.60
69533;DHT22;56729;52.036;5.332;2022-07-17T05:58:38;13.50;91.50
69533;DHT22;56729;52.036;5.332;2022-07-17T05:59:40;13.50;91.50
69533;DHT22;56729;52.036;5.332;2022-07-17T06:00:42;13.60;91.40
69533;DHT22;56729;52.036;5.332;2022-07-17T06:01:44;13.60;91.30
69533;DHT22;56729;52.036;5.332;2022-07-17T06:02:46;13.60;91.30
69533;DHT22;56729;52.036;5.332;2022-07-17T06:03:48;13.60;91.20
69533;DHT22;56729;52.036;5.332;2022-07-17T06:04:50;13.70;91.20
69533;DHT22;56729;52.036;5.332;2022-07-17T06:05:52;13.70;91.10
69533;DHT22;56729;52.036;5.332;2022-07-17T06:06:54;13.70;91.10
69533;DHT22;56729;52.036;5.332;2022-07-17T06:07:57;13.70;90.90
69533;DHT22;56729;52.036;5.332;2022-07-17T06:08:59;13.80;91.40
69533;DHT22;56729;52.036;5.332;2022-07-17T06:10:03;13.80;90.90
69533;DHT22;56729;52.036;5.332;2022-07-17T06:11:06;13.80;90.70
69533;DHT22;56729;52.036;5.332;2022-07-17T06:12:08;13.90;90.60
69533;DHT22;56729;52.036;5.332;2022-07-17T06:13:10;13.90;90.50
69533;DHT22;56729;52.036;5.332;2022-07-17T06:14:12;13.90;90.50
69533;DHT22;56729;52.036;5.332;2022-07-17T06:15:14;13.90;90.50
69533;DHT22;56729;52.036;5.332;2022-07-17T06:16:16;14.00;90.50
69533;DHT22;56729;52.036;5.332;2022-07-17T06:17:18;14.00;90.40
69533;DHT22;56729;52.036;5.332;2022-07-17T06:18:20;14.00;90.30
69533;DHT22;56729;52.036;5.332;2022-07-17T06:19:22;14.10;90.30
69533;DHT22;56729;52.036;5.332;2022-07-17T06:20:24;14.10;90.30
69533;DHT22;56729;52.036;5.332;2022-07-17T06:21:26;14.10;90.20
69533;DHT22;56729;52.036;5.332;2022-07-17T06:22:29;14.10;90.10
69533;DHT22;56729;52.036;5.332;2022-07-17T06:23:31;14.20;90.00
69533;DHT22;56729;52.036;5.332;2022-07-17T06:24:32;14.20;90.00
69533;DHT22;56729;52.036;5.332;2022-07-17T06:25:34;14.20;89.90
69533;DHT22;56729;52.036;5.332;2022-07-17T06:26:36;14.30;89.50
69533;DHT22;56729;52.036;5.332;2022-07-17T06:27:40;14.30;89.00
69533;DHT22;56729;52.036;5.332;2022-07-17T06:28:42;14.30;88.60
69533;DHT22;56729;52.036;5.332;2022-07-17T06:29:44;14.30;88.30
69533;DHT22;56729;52.036;5.332;2022-07-17T06:30:55;14.40;88.10
69533;DHT22;56729;52.036;5.332;2022-07-17T06:31:57;14.40;88.10
69533;DHT22;56729;52.036;5.332;2022-07-17T06:32:59;14.40;88.10
69533;DHT22;56729;52.036;5.332;2022-07-17T06:34:01;14.50;87.60